Terminal Aerodrome Forecast
Issued by NWS

Home | Current Version | Previous Version | Text Only | Print | Product List | Glossary On
Versions: 1 2 3 4 5 6 7 8 9 10 11 12 13 14 15 16 17
000
FTUS42 KTBW 282300 RRA
TAFLAL
TAF
KLAL 282349Z 2900/2924 28004KT P6SM FEW030 BKN250
     FM290400 00000KT 4SM BR SCT025 BKN050
     FM290900 VRB03KT 2SM BR SCT007 BKN020
      TEMPO 2909/2913 1/2SM FG BKN005
     FM291300 17003KT 2SM BR SCT005 BKN015
     FM291500 20007KT P6SM BKN025 BKN250
     FM291900 22008KT P6SM BKN050 BKN250
      AMD NOT SKED 2903/2912=

USA.gov is the U.S. government's official web portal to all federal, state and local government web resources and services.